createdAt,value
2023-02-04T00:00:38.843Z,8.52
2023-02-04T00:03:07.378Z,6.68
2023-02-04T00:05:37.104Z,6.47
2023-02-04T00:08:05.776Z,5.70
2023-02-04T00:10:34.252Z,6.45
2023-02-04T00:13:02.443Z,6.32
2023-02-04T00:15:31.230Z,5.32
2023-02-04T00:17:59.218Z,5.68
2023-02-04T00:20:27.455Z,5.97
2023-02-04T00:22:57.234Z,5.85
2023-02-04T00:25:25.746Z,5.95
2023-02-04T00:27:53.780Z,5.75
2023-02-04T00:30:22.070Z,5.65
2023-02-04T00:32:54.818Z,6.03
2023-02-04T00:35:23.106Z,5.57
2023-02-04T00:37:53.548Z,5.40
2023-02-04T00:40:23.294Z,6.10
2023-02-04T00:42:51.241Z,5.55
2023-02-04T00:45:19.551Z,5.28
2023-02-04T00:47:47.622Z,5.25
2023-02-04T00:50:16.065Z,5.28
2023-02-04T00:52:44.954Z,4.10
2023-02-04T00:55:13.727Z,4.68
2023-02-04T00:57:43.057Z,3.72
2023-02-04T01:00:12.409Z,4.40
2023-02-04T01:02:41.416Z,5.50
2023-02-04T01:05:10.420Z,4.25
2023-02-04T01:07:38.913Z,3.03
2023-02-04T01:10:07.397Z,4.57
2023-02-04T01:12:35.748Z,2.30
2023-02-04T01:15:06.085Z,2.88
2023-02-04T01:17:34.090Z,2.75
2023-02-04T01:20:02.607Z,2.53
2023-02-04T01:22:30.678Z,1.70
2023-02-04T01:24:58.994Z,1.90
2023-02-04T01:27:41.873Z,2.13
2023-02-04T01:30:13.459Z,1.70
2023-02-04T01:32:41.456Z,1.60
2023-02-04T01:35:10.258Z,1.30
2023-02-04T01:37:38.437Z,1.20
2023-02-04T01:40:07.492Z,1.60
2023-02-04T01:42:36.576Z,1.40
2023-02-04T01:45:06.272Z,1.15
2023-02-04T01:47:37.597Z,1.55
2023-02-04T01:50:08.364Z,1.67
2023-02-04T01:52:40.073Z,1.60
2023-02-04T01:55:14.437Z,2.10
2023-02-04T01:57:43.154Z,1.58
2023-02-04T02:00:17.146Z,1.40
2023-02-04T02:02:48.296Z,1.98
2023-02-04T02:05:21.921Z,1.83
2023-02-04T02:07:51.933Z,1.95
2023-02-04T02:10:21.032Z,2.47
2023-02-04T02:12:49.647Z,1.20
2023-02-04T02:15:18.575Z,1.40
2023-02-04T02:17:48.625Z,1.35
2023-02-04T02:20:19.065Z,1.17
2023-02-04T02:22:57.324Z,1.20
2023-02-04T02:25:27.131Z,0.93
2023-02-04T02:27:56.273Z,1.60
2023-02-04T02:30:24.392Z,1.08
2023-02-04T02:32:54.061Z,1.48
2023-02-04T02:35:23.082Z,1.00
2023-02-04T02:37:51.127Z,1.20
2023-02-04T02:40:20.034Z,1.35
2023-02-04T02:42:52.823Z,1.70
2023-02-04T02:45:25.310Z,1.30
2023-02-04T02:47:54.245Z,1.83
2023-02-04T02:50:25.942Z,1.15
2023-02-04T02:52:54.128Z,1.70
2023-02-04T02:55:25.334Z,2.08
2023-02-04T02:57:56.734Z,2.00
2023-02-04T03:00:28.333Z,1.95
2023-02-04T03:03:02.133Z,2.08
2023-02-04T03:05:33.581Z,2.03
2023-02-04T03:08:12.311Z,2.17
2023-02-04T03:10:40.564Z,3.03
2023-02-04T03:13:11.060Z,2.70
2023-02-04T03:15:39.507Z,2.60
2023-02-04T03:18:08.181Z,2.50
2023-02-04T03:20:38.432Z,2.78
2023-02-04T03:23:06.438Z,3.30
2023-02-04T03:25:35.248Z,3.10
2023-02-04T03:28:03.524Z,2.88
2023-02-04T03:30:33.737Z,3.58
2023-02-04T03:33:02.220Z,4.38
2023-02-04T03:35:30.307Z,3.95
2023-02-04T03:38:00.715Z,2.85
2023-02-04T03:40:30.335Z,4.00
2023-02-04T03:42:58.613Z,3.88
2023-02-04T03:45:28.511Z,3.92
2023-02-04T03:48:02.290Z,3.53
2023-02-04T03:50:30.948Z,4.00
2023-02-04T03:52:59.206Z,4.13
2023-02-04T03:55:27.631Z,3.92
2023-02-04T03:57:55.689Z,4.03
2023-02-04T04:00:23.844Z,3.75
2023-02-04T04:02:52.428Z,2.70
2023-02-04T04:05:22.073Z,3.05
2023-02-04T04:07:50.349Z,3.67
2023-02-04T04:10:18.603Z,3.13
2023-02-04T04:12:46.817Z,2.85
2023-02-04T04:15:14.888Z,3.20
2023-02-04T04:17:44.783Z,3.25
2023-02-04T04:20:13.546Z,3.08
2023-02-04T04:22:43.167Z,4.28
2023-02-04T04:25:11.233Z,3.67
2023-02-04T04:27:39.384Z,3.33
2023-02-04T04:30:08.081Z,2.50
2023-02-04T04:32:36.294Z,2.95
2023-02-04T04:35:05.161Z,3.50
2023-02-04T04:37:34.933Z,2.92
2023-02-04T04:40:05.209Z,3.13
2023-02-04T04:42:33.402Z,3.40
2023-02-04T04:45:01.626Z,3.35
2023-02-04T04:47:29.710Z,3.92
2023-02-04T04:49:57.778Z,3.08
2023-02-04T04:52:26.325Z,4.00
2023-02-04T04:54:54.422Z,4.20
2023-02-04T04:57:24.050Z,3.60
2023-02-04T04:59:52.291Z,3.80
2023-02-04T05:02:20.344Z,3.10
2023-02-04T05:04:48.603Z,3.38
2023-02-04T05:07:16.752Z,3.15
2023-02-04T05:09:45.136Z,3.95
2023-02-04T05:12:13.295Z,3.90
2023-02-04T05:14:42.859Z,4.28
2023-02-04T05:17:11.624Z,4.20
2023-02-04T05:19:39.742Z,4.50
2023-02-04T05:22:07.776Z,3.85
2023-02-04T05:24:35.801Z,3.97
2023-02-04T05:27:03.988Z,4.25
2023-02-04T05:29:32.072Z,6.45
2023-02-04T05:32:01.740Z,4.95
2023-02-04T05:34:29.888Z,4.88
2023-02-04T05:36:57.896Z,4.75
2023-02-04T05:39:26.117Z,6.03
2023-02-04T05:41:54.271Z,5.10
2023-02-04T05:44:22.493Z,5.20
2023-02-04T05:46:50.692Z,6.70
2023-02-04T05:49:20.357Z,5.30
2023-02-04T05:51:48.695Z,7.00
2023-02-04T05:54:19.801Z,6.90
2023-02-04T05:56:48.423Z,7.40
2023-02-04T05:59:16.598Z,8.73
2023-02-04T06:01:44.806Z,6.15
2023-02-04T06:04:12.996Z,8.02
2023-02-04T06:06:42.411Z,6.55
2023-02-04T06:09:11.703Z,6.93
2023-02-04T06:11:39.893Z,7.25
2023-02-04T06:14:08.198Z,8.00
2023-02-04T06:16:36.627Z,7.95
2023-02-04T06:19:04.965Z,6.97
2023-02-04T06:21:33.128Z,7.22
2023-02-04T06:24:03.837Z,9.18
2023-02-04T06:26:32.833Z,7.82
2023-02-04T06:29:01.318Z,7.07
2023-02-04T06:31:29.913Z,7.82
2023-02-04T06:33:58.170Z,8.10
2023-02-04T06:36:26.293Z,7.80
2023-02-04T06:38:54.421Z,7.88
2023-02-04T06:41:24.194Z,6.88
2023-02-04T06:43:52.434Z,8.95
2023-02-04T06:46:20.654Z,7.75
2023-02-04T06:48:49.067Z,8.07
2023-02-04T06:51:17.382Z,8.20
2023-02-04T06:53:46.005Z,7.13
2023-02-04T06:56:14.983Z,8.88
2023-02-04T06:58:44.575Z,8.30
2023-02-04T07:01:12.864Z,9.02
2023-02-04T07:03:40.872Z,8.23
2023-02-04T07:06:09.249Z,9.13
2023-02-04T07:08:37.316Z,7.60
2023-02-04T07:11:05.530Z,8.52
2023-02-04T07:13:33.713Z,8.00
2023-02-04T07:16:03.257Z,8.40
2023-02-04T07:18:31.518Z,8.73
2023-02-04T07:20:59.754Z,8.35
2023-02-04T07:23:28.730Z,8.60
2023-02-04T07:25:59.408Z,8.27
2023-02-04T07:28:27.993Z,10.23
2023-02-04T07:30:56.846Z,8.85
2023-02-04T07:33:26.288Z,7.72
2023-02-04T07:35:54.806Z,9.00
2023-02-04T07:38:22.974Z,9.13
2023-02-04T07:40:51.293Z,8.20
2023-02-04T07:43:19.466Z,8.38
2023-02-04T07:45:47.685Z,9.05
2023-02-04T07:48:15.956Z,8.77
2023-02-04T07:50:46.221Z,8.50
2023-02-04T07:53:15.079Z,9.10
2023-02-04T07:55:43.774Z,8.02
2023-02-04T07:58:12.401Z,8.10
2023-02-04T08:00:40.592Z,9.20
2023-02-04T08:03:08.921Z,7.43
2023-02-04T08:05:37.308Z,8.15
2023-02-04T08:08:07.161Z,7.97
2023-02-04T08:10:35.863Z,7.10
2023-02-04T08:13:04.189Z,6.97
2023-02-04T08:15:32.884Z,8.18
2023-02-04T08:18:01.310Z,8.15
2023-02-04T08:20:30.183Z,7.57
2023-02-04T08:22:58.732Z,7.80
2023-02-04T08:25:29.870Z,8.55
2023-02-04T08:27:58.370Z,8.80
2023-02-04T08:30:33.373Z,8.98
2023-02-04T08:33:02.108Z,7.10
2023-02-04T08:35:30.679Z,9.50
2023-02-04T08:37:59.033Z,8.00
2023-02-04T08:40:28.951Z,8.18
2023-02-04T08:42:57.593Z,7.47
2023-02-04T08:45:26.588Z,6.80
2023-02-04T08:47:55.072Z,8.02
2023-02-04T08:50:23.716Z,7.97
2023-02-04T08:52:52.091Z,9.32
2023-02-04T08:55:20.446Z,7.63
2023-02-04T08:57:50.242Z,8.02
2023-02-04T09:00:19.139Z,6.15
2023-02-04T09:02:47.440Z,7.35
2023-02-04T09:05:15.952Z,7.30
2023-02-04T09:07:44.466Z,6.53
2023-02-04T09:10:12.932Z,7.75
2023-02-04T09:12:42.252Z,7.25
2023-02-04T09:15:13.878Z,8.82
2023-02-04T09:17:44.010Z,7.13
2023-02-04T09:20:13.059Z,6.40
2023-02-04T09:22:41.549Z,6.10
2023-02-04T09:28:23.292Z,7.05
2023-02-04T09:31:18.924Z,6.05
2023-02-04T09:33:52.188Z,7.55
2023-02-04T09:36:33.065Z,5.72
2023-02-04T09:43:04.672Z,5.90
2023-02-04T10:45:30.935Z,4.32
2023-02-04T10:48:00.633Z,3.33
2023-02-04T10:50:30.713Z,3.58
2023-02-04T10:53:14.968Z,3.70
2023-02-04T10:55:45.227Z,3.25
2023-02-04T10:58:16.349Z,2.63
2023-02-04T11:00:44.554Z,3.63
2023-02-04T11:03:20.685Z,3.05
2023-02-04T11:05:48.906Z,2.65
2023-02-04T11:08:25.012Z,2.25
2023-02-04T11:10:56.298Z,2.53
2023-02-04T11:13:27.026Z,3.25
2023-02-04T11:16:12.156Z,3.10
2023-02-04T11:18:51.140Z,2.58
2023-02-04T11:21:28.384Z,2.38
2023-02-04T11:24:21.024Z,2.17
2023-02-04T11:26:51.730Z,3.22
2023-02-04T11:29:35.024Z,2.83
2023-02-04T11:32:07.013Z,1.95
2023-02-04T11:34:52.995Z,2.75
2023-02-04T11:37:38.316Z,2.50
2023-02-04T11:40:31.880Z,2.70
2023-02-04T11:43:05.627Z,2.00
2023-02-04T11:45:35.653Z,2.17
2023-02-04T11:48:12.610Z,1.88
2023-02-04T11:50:42.887Z,1.83
2023-02-04T11:53:12.282Z,2.58
2023-02-04T11:55:47.743Z,2.03
2023-02-04T11:58:17.589Z,2.03
2023-02-04T12:00:46.254Z,2.25
2023-02-04T12:03:24.448Z,1.85
2023-02-04T12:05:56.200Z,2.30
2023-02-04T12:08:33.095Z,1.90
2023-02-04T12:11:08.459Z,1.60
2023-02-04T12:13:48.255Z,2.05
2023-02-04T12:16:17.150Z,1.95
2023-02-04T12:18:45.288Z,1.98
2023-02-04T12:21:15.557Z,3.67
2023-02-04T12:23:44.217Z,2.10
2023-02-04T12:26:12.759Z,1.70
2023-02-04T12:28:41.033Z,3.28
2023-02-04T12:31:09.437Z,1.75
2023-02-04T12:33:37.898Z,1.55
2023-02-04T12:36:06.962Z,2.13
2023-02-04T12:38:36.553Z,2.30
2023-02-04T12:41:05.012Z,2.38
2023-02-04T12:43:33.049Z,2.45
2023-02-04T12:46:01.268Z,2.22
2023-02-04T12:48:29.720Z,1.98
2023-02-04T12:50:57.991Z,1.92
2023-02-04T12:53:26.036Z,2.03
2023-02-04T12:55:57.692Z,1.98
2023-02-04T12:58:25.958Z,1.90
2023-02-04T13:00:54.321Z,1.40
2023-02-04T13:03:23.706Z,2.25
2023-02-04T13:05:51.792Z,1.52
2023-02-04T13:08:19.754Z,2.75
2023-02-04T13:10:51.756Z,1.88
2023-02-04T13:13:21.900Z,2.85
2023-02-04T13:15:50.218Z,2.22
2023-02-04T13:18:19.101Z,3.33
2023-02-04T13:20:47.388Z,2.60
2023-02-04T13:23:15.406Z,2.45
2023-02-04T13:25:44.403Z,3.90
2023-02-04T13:28:12.627Z,4.00
2023-02-04T13:30:42.195Z,2.92
2023-02-04T13:33:10.628Z,2.85
2023-02-04T13:35:38.563Z,3.50
2023-02-04T13:38:06.762Z,2.28
2023-02-04T13:40:34.844Z,2.20
2023-02-04T13:43:02.928Z,1.83
2023-02-04T13:45:31.547Z,1.90
2023-02-04T13:48:01.243Z,2.25
2023-02-04T13:50:29.567Z,2.00
2023-02-04T13:52:57.600Z,2.30
2023-02-04T13:55:25.815Z,2.67
2023-02-04T13:57:53.942Z,2.80
2023-02-04T14:00:22.007Z,2.63
2023-02-04T14:02:50.191Z,2.55
2023-02-04T14:05:19.533Z,2.90
2023-02-04T14:07:47.563Z,3.78
2023-02-04T14:10:15.738Z,3.60
2023-02-04T14:12:43.732Z,3.75
2023-02-04T14:15:12.012Z,2.88
2023-02-04T14:17:40.228Z,3.67
2023-02-04T14:20:09.440Z,3.40
2023-02-04T14:22:39.047Z,3.10
2023-02-04T14:25:07.842Z,3.42
2023-02-04T14:27:36.240Z,3.38
2023-02-04T14:30:05.718Z,2.45
2023-02-04T14:32:33.978Z,4.07
2023-02-04T14:35:02.156Z,3.95
2023-02-04T14:37:30.088Z,3.60
2023-02-04T14:40:01.835Z,2.13
2023-02-04T14:42:30.690Z,3.08
2023-02-04T14:44:58.959Z,2.63
2023-02-04T14:47:27.128Z,3.42
2023-02-04T14:49:57.057Z,2.88
2023-02-04T14:52:27.900Z,3.20
2023-02-04T14:54:58.016Z,3.20
2023-02-04T14:57:28.162Z,3.10
2023-02-04T14:59:56.615Z,2.45
2023-02-04T15:02:26.968Z,2.25
2023-02-04T15:04:58.434Z,3.30
2023-02-04T15:07:28.968Z,3.05
2023-02-04T15:09:58.096Z,3.42
2023-02-04T15:12:28.194Z,2.63
2023-02-04T15:14:57.130Z,2.28
2023-02-04T15:17:29.043Z,3.25
2023-02-04T15:19:59.366Z,2.90
2023-02-04T15:22:29.749Z,2.13
2023-02-04T15:24:59.877Z,2.15
2023-02-04T15:27:33.217Z,2.58
2023-02-04T15:30:02.846Z,3.30
2023-02-04T15:32:33.379Z,2.60
2023-02-04T15:35:02.951Z,2.90
2023-02-04T15:37:31.336Z,2.90
2023-02-04T15:40:01.245Z,3.20
2023-02-04T15:42:31.603Z,2.70
2023-02-04T15:45:00.579Z,3.00
2023-02-04T15:47:29.141Z,3.45
2023-02-04T15:49:58.922Z,2.85
2023-02-04T15:52:29.517Z,3.10
2023-02-04T15:55:00.398Z,3.47
2023-02-04T15:57:29.289Z,3.30
2023-02-04T16:00:03.379Z,2.83
2023-02-04T16:02:35.162Z,3.10
2023-02-04T16:05:04.679Z,4.32
2023-02-04T16:07:35.195Z,3.90
2023-02-04T16:10:04.719Z,3.80
2023-02-04T16:12:34.229Z,4.38
2023-02-04T16:15:07.109Z,4.45
2023-02-04T16:17:36.020Z,3.13
2023-02-04T16:20:07.353Z,3.17
2023-02-04T16:22:39.583Z,2.90
2023-02-04T16:25:09.498Z,3.20
2023-02-04T16:27:37.964Z,3.38
2023-02-04T16:30:09.959Z,3.35
2023-02-04T16:32:41.807Z,3.30
2023-02-04T16:35:11.544Z,3.05
2023-02-04T17:09:54.361Z,4.60
2023-02-04T17:20:23.145Z,2.97
2023-02-04T17:37:06.467Z,1.67
2023-02-04T17:52:35.529Z,2.25
2023-02-04T17:55:20.911Z,2.50
2023-02-04T17:57:56.980Z,3.33
2023-02-04T18:00:33.877Z,2.70
2023-02-04T18:03:04.789Z,3.00
2023-02-04T18:05:37.917Z,2.40
2023-02-04T18:08:18.858Z,3.40
2023-02-04T18:10:49.785Z,3.20
2023-02-04T18:13:20.261Z,3.45
2023-02-04T18:15:56.606Z,3.50
2023-02-04T18:18:29.104Z,2.60
2023-02-04T18:21:00.632Z,2.65
2023-02-04T18:23:36.638Z,3.40
2023-02-04T18:26:17.819Z,3.25
2023-02-04T18:28:50.432Z,3.15
2023-02-04T18:31:29.672Z,3.45
2023-02-04T18:33:59.350Z,3.95
2023-02-04T18:36:28.547Z,4.53
2023-02-04T18:39:02.579Z,2.53
2023-02-04T18:41:34.158Z,2.90
2023-02-04T18:44:20.764Z,2.95
2023-02-04T18:46:50.415Z,3.50
2023-02-04T18:49:28.491Z,6.30
2023-02-04T18:52:01.352Z,5.57
2023-02-04T18:54:39.165Z,6.18
2023-02-04T18:57:37.780Z,6.90
2023-02-04T19:00:35.972Z,4.75
2023-02-04T19:03:26.966Z,5.22
2023-02-04T19:05:59.727Z,5.03
2023-02-04T19:08:30.447Z,5.05
2023-02-04T19:11:04.814Z,5.15
2023-02-04T19:13:45.141Z,5.03
2023-02-04T19:16:24.483Z,4.20
2023-02-04T19:18:56.891Z,4.30
2023-02-04T19:21:31.413Z,4.07
2023-02-04T19:24:16.285Z,3.90
2023-02-04T19:26:56.166Z,3.83
2023-02-04T19:29:45.251Z,4.45
2023-02-04T19:32:33.847Z,4.80
2023-02-04T19:35:18.590Z,3.65
2023-02-04T19:37:56.922Z,5.00
2023-02-04T19:40:32.124Z,6.10
2023-02-04T19:43:22.913Z,5.55
2023-02-04T19:45:55.562Z,6.93
2023-02-04T19:48:36.754Z,6.05
2023-02-04T19:51:24.502Z,6.90
2023-02-04T19:53:59.766Z,7.22
2023-02-04T19:56:33.038Z,6.95
2023-02-04T19:59:19.501Z,7.50
2023-02-04T20:01:49.524Z,8.15
2023-02-04T20:04:21.843Z,8.82
2023-02-04T20:06:53.069Z,9.10
2023-02-04T20:09:25.793Z,6.65
2023-02-04T20:12:01.378Z,7.30
2023-02-04T20:14:52.984Z,6.60
2023-02-04T20:17:48.078Z,7.55
2023-02-04T20:20:22.903Z,6.07
2023-02-04T20:22:57.110Z,6.85
2023-02-04T20:25:46.428Z,8.80
2023-02-04T20:28:27.934Z,8.90
2023-02-04T20:31:03.262Z,7.63
2023-02-04T20:33:47.981Z,7.00
2023-02-04T20:36:41.674Z,9.88
2023-02-04T20:39:29.621Z,8.05
2023-02-04T20:42:43.210Z,9.48
2023-02-04T20:45:30.019Z,9.05
2023-02-04T20:48:01.755Z,7.63
2023-02-04T20:50:41.585Z,7.57
2023-02-04T20:53:24.204Z,10.13
2023-02-04T20:55:55.703Z,7.82
2023-02-04T20:58:25.481Z,7.75
2023-02-04T21:00:56.010Z,7.90
2023-02-04T21:03:28.765Z,7.40
2023-02-04T21:05:58.730Z,6.95
2023-02-04T21:08:29.864Z,7.50
2023-02-04T21:10:58.521Z,7.68
2023-02-04T21:13:26.640Z,10.35
2023-02-04T21:15:55.485Z,12.15
2023-02-04T21:18:23.934Z,10.80
2023-02-04T21:20:53.556Z,7.97
2023-02-04T21:23:21.784Z,9.43
2023-02-04T21:25:49.875Z,9.52
2023-02-04T21:28:19.658Z,8.10
2023-02-04T21:30:47.909Z,7.88
2023-02-04T21:33:17.218Z,8.30
2023-02-04T21:35:45.412Z,10.02
2023-02-04T21:38:14.901Z,10.13
2023-02-04T21:40:43.437Z,10.13
2023-02-04T21:43:11.957Z,11.10
2023-02-04T21:45:45.250Z,11.02
2023-02-04T21:48:20.862Z,11.63
2023-02-04T21:50:56.405Z,8.80
2023-02-04T21:53:27.361Z,8.82
2023-02-04T21:56:01.954Z,7.25
2023-02-04T21:58:31.803Z,6.85
2023-02-04T22:01:04.281Z,6.75
2023-02-04T22:03:35.094Z,6.10
2023-02-04T22:06:07.049Z,5.55
2023-02-04T22:08:36.895Z,6.55
2023-02-04T22:11:05.815Z,7.95
2023-02-04T22:13:52.747Z,10.10
2023-02-04T22:16:21.719Z,7.63
2023-02-04T22:18:50.593Z,8.45
2023-02-04T22:21:22.353Z,6.05
2023-02-04T22:23:55.644Z,7.60
2023-02-04T22:26:24.836Z,6.88
2023-02-04T22:28:53.506Z,6.15
2023-02-04T22:31:23.830Z,6.35
2023-02-04T22:33:52.677Z,8.10
2023-02-04T22:36:25.405Z,6.88
2023-02-04T22:39:00.452Z,7.75
2023-02-04T22:41:30.731Z,7.00
2023-02-04T22:43:58.834Z,7.25
2023-02-04T22:46:29.370Z,6.70
2023-02-04T22:48:57.902Z,5.80
2023-02-04T22:51:26.225Z,6.53
2023-02-04T22:53:54.348Z,7.38
2023-02-04T22:56:24.182Z,6.05
2023-02-04T22:58:53.061Z,7.00
2023-02-04T23:01:21.264Z,7.50
2023-02-04T23:03:50.117Z,7.50
2023-02-04T23:06:18.648Z,8.05
2023-02-04T23:08:48.697Z,8.90
2023-02-04T23:11:18.485Z,6.18
2023-02-04T23:13:48.205Z,6.82
2023-02-04T23:16:16.372Z,6.47
2023-02-04T23:18:44.587Z,6.50
2023-02-04T23:21:12.814Z,5.53
2023-02-04T23:23:41.358Z,6.78
2023-02-04T23:26:09.819Z,8.00
2023-02-04T23:28:37.927Z,10.27
2023-02-04T23:31:07.470Z,9.57
2023-02-04T23:33:35.665Z,8.85
2023-02-04T23:36:03.976Z,6.63
2023-02-04T23:38:32.126Z,5.88
2023-02-04T23:41:00.452Z,6.07
2023-02-04T23:43:29.158Z,6.10
2023-02-04T23:45:57.846Z,7.13
2023-02-04T23:48:27.502Z,6.70
2023-02-04T23:50:58.196Z,6.80
2023-02-04T23:53:26.346Z,5.43
2023-02-04T23:55:54.443Z,5.45
2023-02-04T23:58:22.911Z,5.65
